Time;durP1;ratioP1;P1;durP2;ratioP2;P2;SDS_P1;SDS_P2;PMS_P1;PMS_P2;Temp;Humidity;BMP_temperature;BMP_pressure;BME280_temperature;BME280_humidity;BME280_pressure;Samples;Min_cycle;Max_cycle;Signal;HPM_P1;HPM_P2
2022/03/08 00:02:03;;;;;;;15.80;10.05;;;6.30;99.90;;;;;;5054971;28;20449;-80
2022/03/08 00:04:29;;;;;;;17.45;10.00;;;6.20;99.90;;;;;;5054947;28;20032;-79
2022/03/08 00:06:55;;;;;;;17.05;10.48;;;6.30;99.90;;;;;;5049932;28;20028;-79
2022/03/08 00:09:21;;;;;;;18.23;11.00;;;6.30;99.90;;;;;;5047771;28;20040;-79
2022/03/08 00:11:46;;;;;;;17.27;10.52;;;6.20;99.90;;;;;;5061689;28;20021;-79
2022/03/08 00:14:12;;;;;;;16.67;10.05;;;6.20;99.90;;;;;;5051029;28;20029;-79
2022/03/08 00:16:38;;;;;;;14.93;9.68;;;6.20;99.90;;;;;;5051487;28;20053;-78
2022/03/08 00:19:04;;;;;;;15.65;8.75;;;6.10;99.90;;;;;;5048456;28;20275;-78
2022/03/08 00:21:30;;;;;;;14.80;9.20;;;6.10;99.90;;;;;;5048408;28;20029;-78
2022/03/08 00:23:56;;;;;;;15.13;8.80;;;6.20;99.90;;;;;;5037316;28;20037;-78
2022/03/08 00:26:23;;;;;;;16.85;9.00;;;6.20;99.90;;;;;;5049569;28;20410;-78
2022/03/08 00:28:48;;;;;;;15.85;9.20;;;6.10;99.90;;;;;;5048190;28;20021;-78
2022/03/08 00:31:14;;;;;;;15.00;8.35;;;6.00;99.90;;;;;;5048161;28;20021;-78
2022/03/08 00:33:41;;;;;;;16.63;8.88;;;6.00;99.90;;;;;;5051846;28;20045;-78
2022/03/08 00:36:07;;;;;;;14.57;8.48;;;6.00;99.90;;;;;;5050673;28;20024;-78
2022/03/08 00:38:34;;;;;;;12.57;7.65;;;5.90;99.90;;;;;;5052610;28;20036;-78
2022/03/08 00:40:59;;;;;;;13.43;8.15;;;5.90;99.90;;;;;;5051424;28;20029;-79
2022/03/08 00:43:26;;;;;;;12.70;7.25;;;5.90;99.90;;;;;;5057429;28;20112;-78
2022/03/08 00:45:52;;;;;;;11.55;7.97;;;5.80;99.90;;;;;;5053358;28;20035;-78
2022/03/08 00:48:18;;;;;;;12.23;6.88;;;5.80;99.90;;;;;;5051852;28;20028;-78
2022/03/08 00:50:44;;;;;;;12.63;7.32;;;5.90;99.90;;;;;;5052521;28;20434;-78
2022/03/08 00:53:09;;;;;;;11.70;6.90;;;5.90;99.90;;;;;;5048303;28;20033;-78
2022/03/08 00:55:36;;;;;;;12.45;6.45;;;5.80;99.90;;;;;;5051673;28;20044;-78
2022/03/08 00:58:03;;;;;;;11.18;6.43;;;5.70;99.90;;;;;;5054137;28;20061;-78
2022/03/08 01:00:31;;;;;;;10.63;6.82;;;5.70;99.90;;;;;;5053979;28;20017;-79
2022/03/08 01:02:57;;;;;;;10.10;7.30;;;5.80;99.90;;;;;;5051544;28;20104;-78
2022/03/08 01:05:22;;;;;;;11.40;6.97;;;5.80;99.90;;;;;;5052804;28;20017;-78
2022/03/08 01:07:49;;;;;;;13.20;7.07;;;5.80;99.90;;;;;;5049289;28;20052;-78
2022/03/08 01:10:17;;;;;;;10.85;6.47;;;5.80;99.90;;;;;;5050953;28;20024;-78
2022/03/08 01:12:44;;;;;;;15.25;7.15;;;5.80;99.90;;;;;;5051486;28;20017;-78
2022/03/08 01:15:11;;;;;;;12.65;7.13;;;5.80;99.90;;;;;;5051554;28;20140;-79
2022/03/08 01:17:37;;;;;;;10.55;6.25;;;5.70;99.90;;;;;;5052930;28;20517;-80
2022/03/08 01:20:08;;;;;;;11.50;7.63;;;5.90;99.90;;;;;;5050807;28;20112;-79
2022/03/08 01:22:34;;;;;;;12.50;7.30;;;6.00;99.90;;;;;;5051274;28;20049;-80
2022/03/08 01:25:00;;;;;;;11.55;7.28;;;6.20;99.90;;;;;;5050564;28;20459;-80
2022/03/08 01:27:25;;;;;;;15.68;7.50;;;6.10;99.90;;;;;;5051247;28;20024;-79
2022/03/08 01:29:51;;;;;;;12.50;7.55;;;6.20;99.90;;;;;;5063279;28;20107;-78
2022/03/08 01:32:17;;;;;;;11.75;7.00;;;6.10;99.90;;;;;;5052347;28;20055;-78
2022/03/08 01:34:43;;;;;;;11.18;6.80;;;6.10;99.90;;;;;;5053148;28;20032;-80
2022/03/08 01:37:11;;;;;;;11.15;6.75;;;6.20;99.90;;;;;;5051242;28;20021;-79
2022/03/08 01:39:37;;;;;;;14.60;8.43;;;6.10;99.90;;;;;;5050429;28;20033;-79
2022/03/08 01:42:15;;;;;;;13.13;7.47;;;6.10;99.90;;;;;;5051216;28;20040;-80
2022/03/08 01:44:43;;;;;;;11.10;7.40;;;6.30;99.90;;;;;;5047764;28;20064;-79
2022/03/08 01:47:13;;;;;;;14.25;8.63;;;6.20;99.90;;;;;;5062727;28;20029;-79
2022/03/08 01:49:40;;;;;;;11.10;7.13;;;6.30;99.90;;;;;;5050558;28;20053;-79
2022/03/08 01:52:06;;;;;;;12.82;7.45;;;6.20;99.90;;;;;;5048382;28;20021;-79
2022/03/08 01:54:32;;;;;;;10.80;7.28;;;6.30;99.90;;;;;;5049177;28;20021;-79
2022/03/08 01:56:58;;;;;;;13.32;7.30;;;6.10;99.90;;;;;;5050973;28;20020;-79
2022/03/08 01:59:24;;;;;;;13.43;7.20;;;6.20;99.90;;;;;;5053476;28;20032;-79
2022/03/08 02:01:50;;;;;;;10.93;6.93;;;6.20;99.90;;;;;;5044637;28;20509;-78
2022/03/08 02:04:15;;;;;;;10.30;6.75;;;6.10;99.90;;;;;;5049280;28;20033;-78
2022/03/08 02:06:44;;;;;;;9.88;6.40;;;6.20;99.90;;;;;;5050241;28;20063;-78
2022/03/08 02:09:10;;;;;;;9.50;6.07;;;6.10;99.90;;;;;;5048690;28;20160;-78
2022/03/08 02:11:37;;;;;;;10.60;6.22;;;6.10;99.90;;;;;;5052109;28;20032;-79
2022/03/08 02:14:03;;;;;;;9.82;6.35;;;6.10;99.90;;;;;;5050329;28;20013;-79
2022/03/08 02:16:29;;;;;;;8.77;6.13;;;6.10;99.90;;;;;;5050624;28;20029;-79
2022/03/08 02:18:55;;;;;;;10.60;6.40;;;6.10;99.90;;;;;;5051301;28;20025;-78
2022/03/08 02:21:20;;;;;;;8.55;5.78;;;6.00;99.90;;;;;;5055652;28;20493;-78
2022/03/08 02:23:46;;;;;;;9.90;5.75;;;6.00;99.90;;;;;;5056676;28;20082;-78
2022/03/08 02:26:12;;;;;;;10.27;6.07;;;5.80;99.90;;;;;;5061914;28;20456;-78
2022/03/08 02:28:40;;;;;;;10.40;5.68;;;5.80;99.90;;;;;;5056346;28;20027;-78
2022/03/08 02:31:06;;;;;;;10.15;5.68;;;5.80;99.90;;;;;;5055207;28;20033;-78
2022/03/08 02:33:32;;;;;;;10.77;6.15;;;5.70;99.90;;;;;;5050246;28;20414;-77
2022/03/08 02:35:58;;;;;;;8.50;5.57;;;5.70;99.90;;;;;;5054028;28;20434;-78
2022/03/08 02:38:23;;;;;;;9.93;6.15;;;5.50;99.90;;;;;;5056060;28;20490;-78
2022/03/08 02:40:49;;;;;;;6.88;4.70;;;5.50;99.90;;;;;;5057270;28;20040;-78
2022/03/08 02:43:16;;;;;;;9.85;5.32;;;5.70;99.90;;;;;;5049425;28;20055;-78
2022/03/08 02:45:42;;;;;;;8.32;5.20;;;5.50;99.90;;;;;;5049646;28;20029;-78
2022/03/08 02:48:09;;;;;;;6.72;5.07;;;5.50;99.90;;;;;;5061578;28;20034;-78
2022/03/08 02:50:34;;;;;;;8.18;5.78;;;5.40;99.90;;;;;;5051499;28;20068;-78
2022/03/08 02:53:01;;;;;;;8.10;5.03;;;5.30;99.90;;;;;;5049242;28;20494;-78
2022/03/08 02:55:30;;;;;;;8.73;5.15;;;5.40;99.90;;;;;;5048876;28;20623;-78
2022/03/08 02:57:56;;;;;;;7.32;4.90;;;5.30;99.90;;;;;;5049505;28;20506;-78
2022/03/08 03:00:24;;;;;;;8.68;5.70;;;5.20;99.90;;;;;;5031525;28;20031;-78
2022/03/08 03:02:51;;;;;;;9.13;5.13;;;5.20;99.90;;;;;;5058714;28;20087;-78
2022/03/08 03:05:17;;;;;;;8.80;5.28;;;5.10;99.90;;;;;;5050622;28;20021;-78
2022/03/08 03:07:43;;;;;;;7.07;4.93;;;5.20;99.90;;;;;;5047012;28;20094;-79
2022/03/08 03:10:12;;;;;;;10.30;5.47;;;5.20;99.90;;;;;;5048697;28;20112;-79
2022/03/08 03:12:38;;;;;;;8.43;4.90;;;5.30;99.90;;;;;;5049606;28;20060;-78
2022/03/08 03:15:07;;;;;;;7.85;5.18;;;5.20;99.90;;;;;;5049322;28;20021;-78
2022/03/08 03:17:33;;;;;;;8.70;5.22;;;5.00;99.90;;;;;;5050753;28;20490;-78
2022/03/08 03:19:59;;;;;;;5.88;4.88;;;5.00;99.90;;;;;;5049016;28;20071;-79
2022/03/08 03:22:25;;;;;;;6.60;5.03;;;4.80;99.90;;;;;;5049190;28;20040;-79
2022/03/08 03:24:50;;;;;;;6.82;4.53;;;4.90;99.90;;;;;;5048042;28;20079;-79
2022/03/08 03:27:16;;;;;;;7.68;4.80;;;4.90;99.90;;;;;;5049003;28;20090;-79
2022/03/08 03:29:42;;;;;;;9.05;5.10;;;4.80;99.90;;;;;;5037422;28;20033;-79
2022/03/08 03:32:08;;;;;;;8.25;5.50;;;4.80;99.90;;;;;;5048888;28;20063;-79
2022/03/08 03:34:33;;;;;;;9.73;5.57;;;4.90;99.90;;;;;;5049304;28;20029;-78
2022/03/08 03:36:59;;;;;;;6.53;4.55;;;5.10;99.90;;;;;;5050448;28;20044;-78
2022/03/08 03:39:25;;;;;;;7.75;5.32;;;4.80;99.90;;;;;;5052951;28;20025;-78
2022/03/08 03:41:50;;;;;;;6.85;4.45;;;4.90;99.90;;;;;;5049445;28;20090;-78
2022/03/08 03:44:16;;;;;;;10.93;5.22;;;4.90;99.90;;;;;;5048401;28;20074;-78
2022/03/08 03:46:42;;;;;;;9.38;5.75;;;5.00;99.90;;;;;;5049274;28;20108;-78
2022/03/08 03:49:08;;;;;;;6.88;5.05;;;5.10;99.90;;;;;;5049004;28;20056;-78
2022/03/08 03:51:33;;;;;;;10.80;5.80;;;5.00;99.90;;;;;;5031104;28;20036;-78
2022/03/08 03:53:59;;;;;;;8.93;5.70;;;5.10;99.90;;;;;;5048556;28;20021;-78
2022/03/08 03:56:25;;;;;;;8.52;5.40;;;5.10;99.90;;;;;;5056303;28;20104;-78
2022/03/08 03:58:51;;;;;;;8.10;5.40;;;5.20;99.90;;;;;;5048865;28;20108;-78
2022/03/08 04:01:18;;;;;;;11.18;5.75;;;5.20;99.90;;;;;;5048957;28;20438;-78
2022/03/08 04:03:44;;;;;;;10.02;5.70;;;5.20;99.90;;;;;;5048825;28;20029;-78
2022/03/08 04:06:09;;;;;;;10.35;6.57;;;5.30;99.90;;;;;;5059054;28;20031;-77
2022/03/08 04:08:35;;;;;;;8.10;5.50;;;5.40;99.90;;;;;;5051483;28;20029;-78
2022/03/08 04:11:01;;;;;;;9.73;6.53;;;5.40;99.90;;;;;;5037428;28;20493;-78
2022/03/08 04:13:27;;;;;;;8.38;5.90;;;5.60;99.90;;;;;;5057001;28;20086;-77
2022/03/08 04:15:53;;;;;;;8.30;5.57;;;5.40;99.90;;;;;;5053578;28;20506;-78
2022/03/08 04:18:19;;;;;;;10.23;6.10;;;5.30;99.90;;;;;;5058459;28;20033;-78
2022/03/08 04:20:45;;;;;;;7.88;5.20;;;5.40;99.90;;;;;;5052695;28;20029;-78
2022/03/08 04:23:12;;;;;;;9.70;6.50;;;5.40;99.90;;;;;;5059819;28;20033;-78
2022/03/08 04:25:37;;;;;;;12.90;7.13;;;5.40;99.90;;;;;;5053332;28;20048;-78
2022/03/08 04:28:04;;;;;;;9.02;5.72;;;5.40;99.90;;;;;;5054314;28;20560;-78
2022/03/08 04:30:31;;;;;;;10.93;5.80;;;5.40;99.90;;;;;;5052850;28;20025;-78
2022/03/08 04:32:57;;;;;;;9.98;5.97;;;5.50;99.90;;;;;;5056514;28;20096;-78
2022/03/08 04:35:23;;;;;;;12.32;6.22;;;5.50;99.90;;;;;;5059518;28;20024;-78
2022/03/08 04:37:49;;;;;;;8.38;5.90;;;5.50;99.90;;;;;;5057089;28;20021;-78
2022/03/08 04:40:15;;;;;;;11.50;5.65;;;5.60;99.90;;;;;;5055425;28;20082;-78
2022/03/08 04:42:42;;;;;;;10.38;6.85;;;5.60;99.90;;;;;;5040167;28;20044;-78
2022/03/08 04:45:10;;;;;;;10.00;5.80;;;5.50;99.90;;;;;;5064384;28;20021;-78
2022/03/08 04:47:36;;;;;;;9.63;5.68;;;5.30;99.90;;;;;;5053287;28;20017;-78
2022/03/08 04:50:08;;;;;;;8.52;5.80;;;5.40;99.90;;;;;;5052663;28;20045;-78
2022/03/08 04:52:34;;;;;;;10.25;6.25;;;5.50;99.90;;;;;;5056896;28;20024;-79
2022/03/08 04:55:00;;;;;;;9.43;5.97;;;5.50;99.90;;;;;;5052993;28;20025;-79
2022/03/08 04:57:26;;;;;;;9.95;6.47;;;5.50;99.90;;;;;;5056702;28;20494;-79
2022/03/08 04:59:52;;;;;;;9.23;5.60;;;5.40;99.90;;;;;;5060918;28;20039;-80
2022/03/08 05:02:18;;;;;;;8.30;5.40;;;5.40;99.90;;;;;;5063610;28;20107;-79
2022/03/08 05:04:43;;;;;;;10.55;5.75;;;5.40;99.90;;;;;;5051907;28;20570;-79
2022/03/08 05:07:09;;;;;;;9.88;5.13;;;5.30;99.90;;;;;;5034708;28;20526;-78
2022/03/08 05:09:35;;;;;;;9.75;6.13;;;5.20;99.90;;;;;;5050777;28;20406;-78
2022/03/08 05:12:01;;;;;;;8.93;5.38;;;5.20;99.90;;;;;;5054434;28;20028;-78
2022/03/08 05:14:26;;;;;;;9.13;5.50;;;5.30;99.90;;;;;;5067064;28;20024;-78
2022/03/08 05:16:53;;;;;;;11.88;6.05;;;5.40;99.90;;;;;;5060238;28;20603;-78
2022/03/08 05:19:18;;;;;;;10.07;5.60;;;5.30;99.90;;;;;;5049940;28;20514;-78
2022/03/08 05:21:44;;;;;;;9.52;5.60;;;5.30;99.90;;;;;;5050742;28;20025;-78
2022/03/08 05:24:10;;;;;;;7.75;5.47;;;5.40;99.90;;;;;;5050224;28;20037;-78
2022/03/08 05:26:37;;;;;;;8.50;5.65;;;5.50;99.90;;;;;;5066187;28;20387;-78
2022/03/08 05:29:07;;;;;;;7.93;5.38;;;5.60;99.90;;;;;;5052711;28;20049;-78
2022/03/08 05:31:32;;;;;;;9.65;5.93;;;5.60;99.90;;;;;;5057025;28;20028;-77
2022/03/08 05:33:58;;;;;;;8.13;5.85;;;5.60;99.90;;;;;;5062480;28;20025;-77
2022/03/08 05:36:24;;;;;;;8.68;5.38;;;5.60;99.90;;;;;;5055911;28;20471;-78
2022/03/08 05:38:50;;;;;;;13.80;7.53;;;5.60;99.90;;;;;;5059549;28;20025;-78
2022/03/08 05:41:16;;;;;;;10.43;6.30;;;5.60;99.90;;;;;;5052521;28;20104;-78
2022/03/08 05:43:41;;;;;;;12.35;6.63;;;5.50;99.90;;;;;;5050861;28;20033;-79
2022/03/08 05:46:07;;;;;;;11.32;6.70;;;5.50;99.90;;;;;;5050566;28;20033;-80
2022/03/08 05:48:33;;;;;;;13.68;6.70;;;5.60;99.90;;;;;;5050579;28;20468;-79
2022/03/08 05:50:59;;;;;;;10.10;7.00;;;5.70;99.90;;;;;;5050588;28;20028;-81
2022/03/08 05:53:25;;;;;;;9.73;6.88;;;5.60;99.90;;;;;;5051737;28;20506;-81
2022/03/08 05:55:51;;;;;;;12.30;6.22;;;5.50;99.90;;;;;;5050079;28;20441;-81
2022/03/08 05:58:16;;;;;;;10.77;6.70;;;5.40;99.90;;;;;;5050226;28;20402;-81
2022/03/08 06:00:42;;;;;;;11.05;7.05;;;5.50;99.90;;;;;;5050742;28;20024;-81
2022/03/08 06:03:08;;;;;;;10.68;6.55;;;5.50;99.90;;;;;;5050141;28;20485;-81
2022/03/08 06:05:35;;;;;;;9.82;6.30;;;5.30;99.90;;;;;;5052002;28;20029;-81
2022/03/08 06:08:02;;;;;;;10.40;5.95;;;5.30;99.90;;;;;;5049865;28;20025;-79
2022/03/08 06:10:28;;;;;;;9.70;5.97;;;5.30;99.90;;;;;;5050529;28;20021;-79
2022/03/08 06:12:54;;;;;;;12.70;6.00;;;5.40;99.90;;;;;;5050174;28;20541;-79
2022/03/08 06:15:20;;;;;;;10.50;6.18;;;5.40;99.90;;;;;;5050415;28;20096;-79
2022/03/08 06:17:46;;;;;;;11.90;7.18;;;5.50;99.90;;;;;;5059683;28;20414;-79
2022/03/08 06:20:12;;;;;;;13.25;7.32;;;5.60;99.90;;;;;;5051017;28;20029;-79
2022/03/08 06:22:38;;;;;;;13.95;7.47;;;5.80;99.90;;;;;;5050831;28;20091;-78
2022/03/08 06:25:04;;;;;;;14.30;8.07;;;5.80;99.90;;;;;;5044055;28;20026;-78
2022/03/08 06:27:30;;;;;;;12.23;7.50;;;5.90;99.90;;;;;;5044743;28;20124;-78
2022/03/08 06:29:56;;;;;;;11.05;6.50;;;5.90;99.90;;;;;;5052632;28;20558;-78
2022/03/08 06:32:21;;;;;;;14.77;6.93;;;5.80;99.90;;;;;;5048859;28;20070;-78
2022/03/08 06:34:50;;;;;;;11.95;7.07;;;5.90;99.90;;;;;;5049513;28;20070;-78
2022/03/08 06:37:16;;;;;;;12.77;7.63;;;5.90;99.90;;;;;;5049879;28;20013;-78
2022/03/08 06:39:41;;;;;;;10.85;7.10;;;6.00;99.90;;;;;;5049105;28;20093;-78
2022/03/08 06:42:07;;;;;;;11.38;6.82;;;6.10;99.90;;;;;;5049736;28;20116;-78
2022/03/08 06:44:33;;;;;;;11.48;7.45;;;6.10;99.90;;;;;;5046854;28;20021;-78
2022/03/08 06:46:59;;;;;;;11.55;7.45;;;6.20;99.90;;;;;;5051695;28;20578;-78
2022/03/08 06:49:25;;;;;;;14.77;7.00;;;6.20;99.90;;;;;;5049115;28;20052;-78
2022/03/08 06:51:50;;;;;;;12.45;6.82;;;6.10;99.90;;;;;;5049476;28;20044;-78
2022/03/08 06:54:16;;;;;;;9.38;6.35;;;6.20;99.90;;;;;;5048902;28;20505;-78
2022/03/08 06:56:42;;;;;;;10.45;7.20;;;6.20;99.90;;;;;;5051280;28;20056;-79
2022/03/08 06:59:07;;;;;;;12.77;6.88;;;6.40;99.90;;;;;;5059984;28;20043;-80
2022/03/08 07:01:33;;;;;;;10.77;6.82;;;6.50;99.90;;;;;;5055960;28;20052;-81
2022/03/08 07:03:59;;;;;;;11.70;7.35;;;6.40;99.90;;;;;;5057264;28;20043;-81
2022/03/08 07:06:25;;;;;;;10.27;6.93;;;6.80;99.90;;;;;;5049471;28;20120;-80
2022/03/08 07:08:51;;;;;;;10.75;6.93;;;7.10;99.90;;;;;;5051900;28;20135;-81
2022/03/08 07:11:17;;;;;;;14.13;7.63;;;8.40;99.90;;;;;;5055713;28;20114;-80
2022/03/08 07:13:43;;;;;;;11.55;7.22;;;9.90;99.90;;;;;;5056739;28;20017;-80
2022/03/08 07:16:09;;;;;;;14.48;7.97;;;10.20;99.90;;;;;;5060785;28;20017;-80
2022/03/08 07:18:35;;;;;;;12.20;7.65;;;11.80;99.90;;;;;;5055613;28;20035;-82
2022/03/08 07:21:02;;;;;;;11.45;7.57;;;13.10;99.90;;;;;;5061119;28;20517;-82
2022/03/08 07:23:28;;;;;;;16.55;9.50;;;12.80;99.90;;;;;;5050887;28;20032;-82
2022/03/08 07:25:53;;;;;;;13.35;8.10;;;13.30;99.60;;;;;;5050726;28;20025;-82
2022/03/08 07:28:19;;;;;;;16.42;9.52;;;14.90;97.10;;;;;;5053570;28;20048;-80
2022/03/08 07:30:45;;;;;;;16.75;9.95;;;14.70;97.20;;;;;;5049538;28;20379;-80
2022/03/08 07:33:11;;;;;;;14.23;9.00;;;15.30;96.50;;;;;;5055787;28;20127;-80
2022/03/08 07:35:36;;;;;;;17.75;8.93;;;16.20;94.30;;;;;;5059244;28;20029;-80
2022/03/08 07:38:02;;;;;;;13.55;9.05;;;15.90;93.70;;;;;;5058323;28;20025;-80
2022/03/08 07:40:28;;;;;;;16.08;9.80;;;15.50;94.60;;;;;;5050500;28;20037;-80
2022/03/08 07:42:53;;;;;;;13.50;9.25;;;16.70;94.00;;;;;;5052397;28;20024;-80
2022/03/08 07:45:19;;;;;;;12.88;8.98;;;17.40;93.10;;;;;;5048740;28;20025;-80
2022/03/08 07:47:45;;;;;;;14.10;9.38;;;17.40;91.60;;;;;;5070327;28;20086;-80
2022/03/08 07:50:11;;;;;;;14.35;9.15;;;16.90;92.40;;;;;;5054565;28;20037;-80
2022/03/08 07:52:38;;;;;;;12.23;8.73;;;18.20;91.60;;;;;;5059830;28;20027;-80
2022/03/08 07:55:05;;;;;;;14.43;9.40;;;18.40;90.00;;;;;;5054699;28;20025;-80
2022/03/08 07:57:30;;;;;;;18.67;9.95;;;18.30;91.10;;;;;;5060132;28;20021;-80
2022/03/08 07:59:56;;;;;;;13.98;9.02;;;17.20;90.80;;;;;;5064621;28;20542;-80
2022/03/08 08:02:22;;;;;;;13.90;8.93;;;15.80;93.30;;;;;;5066980;28;20502;-78
2022/03/08 08:04:48;;;;;;;19.08;10.13;;;15.30;93.30;;;;;;5054030;28;20033;-81
2022/03/08 08:07:13;;;;;;;16.88;9.18;;;15.20;94.20;;;;;;5056158;28;20557;-81
2022/03/08 08:09:39;;;;;;;17.20;9.95;;;16.20;93.00;;;;;;5052652;28;20098;-81
2022/03/08 08:12:07;;;;;;;18.33;10.57;;;16.40;93.00;;;;;;5059018;28;20022;-79
2022/03/08 08:14:33;;;;;;;15.73;9.82;;;16.10;93.20;;;;;;5054283;28;20561;-79
2022/03/08 08:16:59;;;;;;;17.20;8.93;;;18.00;91.60;;;;;;5052436;28;20137;-78
2022/03/08 08:19:25;;;;;;;14.60;8.60;;;17.50;91.90;;;;;;5052463;28;20025;-78
2022/03/08 08:21:51;;;;;;;15.73;10.65;;;17.10;91.10;;;;;;5052796;28;20021;-79
2022/03/08 08:24:17;;;;;;;16.95;10.50;;;15.30;93.80;;;;;;5052333;28;20119;-78
2022/03/08 08:26:43;;;;;;;16.38;8.98;;;15.00;93.50;;;;;;5036212;28;20025;-79
2022/03/08 08:29:09;;;;;;;15.50;9.55;;;15.50;94.00;;;;;;5056533;28;20490;-80
2022/03/08 08:31:34;;;;;;;22.35;10.82;;;16.30;93.10;;;;;;5048996;28;20521;-78
2022/03/08 08:34:00;;;;;;;14.65;10.00;;;15.50;93.80;;;;;;5052551;28;20033;-78
2022/03/08 08:36:26;;;;;;;14.63;9.05;;;16.10;93.10;;;;;;5051756;28;20028;-79
2022/03/08 08:38:52;;;;;;;13.38;9.35;;;15.20;94.10;;;;;;5048668;28;20714;-79
2022/03/08 08:41:18;;;;;;;13.43;9.35;;;14.60;94.70;;;;;;5053390;28;20073;-79
2022/03/08 08:43:43;;;;;;;17.70;9.82;;;14.00;95.60;;;;;;5052731;28;20028;-79
2022/03/08 08:46:09;;;;;;;13.82;10.02;;;13.60;95.80;;;;;;5051936;28;20524;-78
2022/03/08 08:48:35;;;;;;;14.02;8.70;;;13.20;96.50;;;;;;5051624;28;20525;-78
2022/03/08 08:51:01;;;;;;;14.43;8.48;;;13.30;97.30;;;;;;5065142;28;20033;-78
2022/03/08 08:53:27;;;;;;;17.52;11.23;;;12.90;97.00;;;;;;5049954;28;20028;-78
2022/03/08 08:55:53;;;;;;;15.77;9.50;;;13.40;96.50;;;;;;5047553;28;20111;-78
2022/03/08 08:58:18;;;;;;;17.40;9.88;;;13.80;95.80;;;;;;5051799;28;20387;-78
2022/03/08 09:00:44;;;;;;;12.98;9.63;;;13.30;96.70;;;;;;5051906;28;20090;-78
2022/03/08 09:03:14;;;;;;;17.20;10.07;;;12.50;97.80;;;;;;5051603;28;20040;-79
2022/03/08 09:05:43;;;;;;;14.38;9.13;;;12.20;98.50;;;;;;5053348;28;20067;-78
2022/03/08 09:08:10;;;;;;;16.45;10.50;;;12.20;98.30;;;;;;5051216;28;20094;-78
2022/03/08 09:10:36;;;;;;;15.35;10.05;;;12.00;98.40;;;;;;5050851;28;20100;-78
2022/03/08 09:13:02;;;;;;;13.68;9.52;;;11.40;98.40;;;;;;5053208;28;20144;-78
2022/03/08 09:15:27;;;;;;;15.00;9.88;;;11.70;98.90;;;;;;5051771;28;20025;-78
2022/03/08 09:17:53;;;;;;;14.18;9.77;;;11.60;98.40;;;;;;5051764;28;20021;-78
2022/03/08 09:20:19;;;;;;;13.90;9.88;;;11.90;98.80;;;;;;5052525;28;20157;-79
2022/03/08 09:22:45;;;;;;;15.38;9.90;;;11.90;98.80;;;;;;5033315;28;20105;-78
2022/03/08 09:25:11;;;;;;;14.95;9.80;;;12.10;98.20;;;;;;5048661;28;20032;-78
2022/03/08 09:27:36;;;;;;;13.70;9.45;;;12.30;97.90;;;;;;5051197;28;20021;-78
2022/03/08 09:30:06;;;;;;;15.68;11.25;;;12.80;98.30;;;;;;5050554;28;20070;-78
2022/03/08 09:32:31;;;;;;;15.55;10.27;;;12.70;97.50;;;;;;5052490;28;20079;-78
2022/03/08 09:34:57;;;;;;;19.27;9.77;;;12.90;97.80;;;;;;5051000;28;20021;-78
2022/03/08 09:37:23;;;;;;;14.35;9.45;;;13.00;97.00;;;;;;5046551;28;20564;-78
2022/03/08 09:39:49;;;;;;;13.35;9.32;;;13.10;97.10;;;;;;5050777;28;20060;-78
2022/03/08 09:42:15;;;;;;;13.15;9.45;;;13.60;97.30;;;;;;5051205;28;20139;-78
2022/03/08 09:44:41;;;;;;;14.23;9.70;;;13.70;97.00;;;;;;5050848;28;20025;-78
2022/03/08 09:47:07;;;;;;;14.18;9.23;;;13.20;96.90;;;;;;5061916;28;20031;-78
2022/03/08 09:49:33;;;;;;;12.52;9.32;;;13.30;96.60;;;;;;5055710;28;20040;-78
2022/03/08 09:51:58;;;;;;;16.77;9.50;;;13.60;96.60;;;;;;5052671;28;20423;-79
2022/03/08 09:54:24;;;;;;;13.80;9.45;;;13.60;96.60;;;;;;5031711;28;20028;-80
2022/03/08 09:56:50;;;;;;;13.65;9.85;;;13.50;96.20;;;;;;5051685;28;20028;-80
2022/03/08 09:59:17;;;;;;;13.15;9.55;;;13.30;97.30;;;;;;5051910;28;20407;-78
2022/03/08 10:01:45;;;;;;;14.98;9.20;;;13.30;96.50;;;;;;5050494;28;20079;-78
2022/03/08 10:04:18;;;;;;;14.63;9.45;;;13.10;96.60;;;;;;5049701;28;20021;-78
2022/03/08 10:06:47;;;;;;;13.57;8.98;;;13.20;96.70;;;;;;5047689;28;20410;-78
2022/03/08 10:09:21;;;;;;;13.43;9.05;;;13.00;97.00;;;;;;5043640;28;20115;-78
2022/03/08 10:11:55;;;;;;;15.45;9.57;;;12.50;97.60;;;;;;5047267;28;20025;-78
2022/03/08 10:14:39;;;;;;;15.48;9.27;;;12.60;97.80;;;;;;5061480;28;20108;-78
2022/03/08 10:17:29;;;;;;;15.00;9.15;;;13.10;97.80;;;;;;5050138;28;20036;-78
2022/03/08 10:19:54;;;;;;;14.93;9.05;;;13.30;97.60;;;;;;5045961;28;20028;-78
2022/03/08 10:22:32;;;;;;;12.27;9.02;;;12.90;97.30;;;;;;5031080;28;20583;-78
2022/03/08 10:25:22;;;;;;;12.07;8.65;;;12.90;97.30;;;;;;5050364;28;20055;-79
2022/03/08 10:27:54;;;;;;;18.33;10.00;;;13.00;97.40;;;;;;5061677;28;20061;-78
2022/03/08 10:30:24;;;;;;;13.30;8.98;;;13.10;97.60;;;;;;5054748;28;20175;-78
2022/03/08 10:32:53;;;;;;;15.23;8.88;;;13.20;97.60;;;;;;5066664;28;20516;-78
2022/03/08 10:35:29;;;;;;;13.73;9.15;;;13.50;97.90;;;;;;5042283;28;20063;-79
2022/03/08 10:38:02;;;;;;;13.43;9.02;;;13.60;96.60;;;;;;5049173;28;20036;-79
2022/03/08 10:40:37;;;;;;;14.95;8.70;;;13.20;98.30;;;;;;5050334;28;20028;-79
2022/03/08 10:43:07;;;;;;;13.25;8.63;;;13.00;97.50;;;;;;5051849;28;20029;-79
2022/03/08 10:45:35;;;;;;;15.82;9.27;;;13.30;98.00;;;;;;5047844;28;20033;-80
2022/03/08 10:48:06;;;;;;;13.20;9.43;;;13.30;97.40;;;;;;5031763;28;20499;-78
2022/03/08 10:50:34;;;;;;;12.57;9.38;;;13.10;96.80;;;;;;5056716;28;20041;-78
2022/03/08 10:53:01;;;;;;;12.57;8.90;;;13.30;96.90;;;;;;5059854;28;20065;-78
2022/03/08 10:55:45;;;;;;;15.60;9.57;;;13.30;96.80;;;;;;5060152;28;20040;-78
2022/03/08 10:58:13;;;;;;;12.38;8.27;;;13.10;97.50;;;;;;5051704;28;20174;-79
2022/03/08 11:00:40;;;;;;;13.73;9.25;;;12.90;97.80;;;;;;5048576;28;20013;-78
2022/03/08 11:03:09;;;;;;;16.10;9.50;;;12.90;97.60;;;;;;5049350;28;20025;-78
2022/03/08 11:05:47;;;;;;;13.15;8.95;;;12.90;97.70;;;;;;5050685;28;20032;-79
2022/03/08 11:08:14;;;;;;;14.10;8.93;;;13.30;97.60;;;;;;5059001;28;20032;-78
2022/03/08 11:10:42;;;;;;;13.02;8.88;;;13.60;97.30;;;;;;5055664;28;20107;-79
2022/03/08 11:13:09;;;;;;;14.10;9.82;;;13.80;96.90;;;;;;5051758;28;20020;-78
2022/03/08 11:15:38;;;;;;;11.07;8.18;;;13.40;96.40;;;;;;5045822;28;20025;-80
2022/03/08 11:18:07;;;;;;;15.57;9.68;;;13.70;96.80;;;;;;5053534;28;20143;-79
2022/03/08 11:20:34;;;;;;;13.57;8.05;;;13.60;96.00;;;;;;5061238;28;20032;-79
2022/03/08 11:23:00;;;;;;;13.40;8.80;;;13.60;95.90;;;;;;5057279;28;20529;-79
2022/03/08 11:25:37;;;;;;;13.52;8.48;;;13.40;97.00;;;;;;5051150;28;20029;-79
2022/03/08 11:28:04;;;;;;;13.02;8.70;;;13.40;96.70;;;;;;5050689;28;20032;-79
2022/03/08 11:30:40;;;;;;;14.52;9.05;;;13.30;96.70;;;;;;5058902;28;20017;-79
2022/03/08 11:33:14;;;;;;;11.32;8.38;;;13.30;96.50;;;;;;5048321;28;20039;-79
2022/03/08 11:35:55;;;;;;;11.38;7.70;;;13.70;97.20;;;;;;5053306;28;20029;-79
2022/03/08 11:38:21;;;;;;;13.35;7.85;;;14.00;97.50;;;;;;5059341;28;20025;-79
2022/03/08 11:40:57;;;;;;;12.60;7.97;;;14.30;96.90;;;;;;5054402;28;20708;-79
2022/03/08 11:43:43;;;;;;;15.05;7.85;;;14.10;96.10;;;;;;5053611;28;20031;-79
2022/03/08 11:46:20;;;;;;;13.05;7.60;;;14.10;96.00;;;;;;5052875;28;20715;-79
2022/03/08 11:49:01;;;;;;;13.30;7.68;;;14.10;96.00;;;;;;5050570;28;20090;-79
2022/03/08 11:51:30;;;;;;;15.32;8.35;;;14.20;96.20;;;;;;5049142;28;20033;-79
2022/03/08 11:54:26;;;;;;;12.10;8.38;;;14.10;96.20;;;;;;5049784;28;20549;-79
2022/03/08 11:56:54;;;;;;;11.25;7.45;;;14.30;96.40;;;;;;5049948;28;20025;-79
2022/03/08 11:59:20;;;;;;;12.38;7.65;;;14.40;95.70;;;;;;5055923;28;20025;-79
2022/03/08 12:01:47;;;;;;;12.23;8.63;;;14.20;95.60;;;;;;5056728;28;20028;-78
2022/03/08 12:04:16;;;;;;;12.32;8.55;;;14.30;95.50;;;;;;5050793;28;20020;-78
2022/03/08 12:06:49;;;;;;;10.70;7.40;;;14.10;94.80;;;;;;5051598;28;20032;-78
2022/03/08 12:09:18;;;;;;;13.18;7.88;;;14.40;95.50;;;;;;5045843;28;20140;-78
2022/03/08 12:11:44;;;;;;;11.43;7.43;;;14.40;95.50;;;;;;5046986;28;20064;-78
2022/03/08 12:14:15;;;;;;;9.45;7.53;;;14.40;94.80;;;;;;5051115;28;20049;-78
2022/03/08 12:16:47;;;;;;;11.88;7.75;;;14.50;95.30;;;;;;5053746;28;20070;-78
2022/03/08 12:19:19;;;;;;;9.98;7.43;;;14.40;95.20;;;;;;5051877;28;20108;-78
2022/03/08 12:21:45;;;;;;;12.20;7.78;;;14.30;94.90;;;;;;5050861;28;20029;-78
2022/03/08 12:24:17;;;;;;;9.80;6.65;;;14.20;95.10;;;;;;5056692;28;20091;-78
2022/03/08 12:26:42;;;;;;;;;;;14.10;94.70;;;;;;5059953;28;20036;-78
2022/03/08 12:29:23;;;;;;;12.30;8.38;;;14.00;95.70;;;;;;5050923;28;19916;-78
2022/03/08 12:31:58;;;;;;;12.27;7.95;;;13.80;95.00;;;;;;5032010;28;20499;-78
2022/03/08 12:34:39;;;;;;;9.88;6.95;;;14.40;96.90;;;;;;5054901;28;20099;-78
2022/03/08 12:37:13;;;;;;;11.65;7.53;;;14.70;94.70;;;;;;5049634;28;20017;-78
2022/03/08 12:40:02;;;;;;;13.18;7.55;;;14.60;93.60;;;;;;5049070;28;20028;-78
2022/03/08 12:42:32;;;;;;;10.45;6.60;;;14.60;94.30;;;;;;5046117;28;20066;-79
2022/03/08 12:45:11;;;;;;;10.63;6.90;;;15.00;95.10;;;;;;5051935;28;20048;-79
2022/03/08 12:47:47;;;;;;;9.88;6.43;;;15.00;93.90;;;;;;5042672;28;20667;-80